Time;durP1;ratioP1;P1;durP2;ratioP2;P2;SDS_P1;SDS_P2;PMS_P1;PMS_P2;Temp;Humidity;BMP_temperature;BMP_pressure;BME280_temperature;BME280_humidity;BME280_pressure;Samples;Min_cycle;Max_cycle;Signal;HPM_P1;HPM_P2
2022/12/04 00:01:45;;;;;;;;;18.75;14.25;;;;;7.41;100.00;101059.88;5086997;27;68613;-74
2022/12/04 00:04:10;;;;;;;;;21.00;15.50;;;;;7.43;100.00;101066.03;5086101;27;64218;-73
2022/12/04 00:06:35;;;;;;;;;19.50;15.00;;;;;7.41;100.00;101055.50;5093401;27;45561;-76
2022/12/04 00:09:01;;;;;;;;;23.25;16.00;;;;;7.33;100.00;101038.63;5079813;27;59473;-73
2022/12/04 00:11:29;;;;;;;;;18.75;10.75;;;;;7.41;100.00;101047.63;5084803;27;46544;-73
2022/12/04 00:13:55;;;;;;;;;14.00;12.50;;;;;7.40;100.00;101045.81;5095158;27;45387;-74
2022/12/04 00:16:23;;;;;;;;;21.00;11.00;;;;;7.40;100.00;101053.69;5087439;27;45515;-73
2022/12/04 00:18:49;;;;;;;;;15.75;12.75;;;;;7.39;100.00;101051.91;5089176;27;45551;-73
2022/12/04 00:21:15;;;;;;;;;14.00;10.75;;;;;7.37;100.00;101051.00;5079626;27;47056;-73
2022/12/04 00:23:41;;;;;;;;;18.25;10.50;;;;;7.35;100.00;101045.72;5087487;27;45519;-73
2022/12/04 00:26:10;;;;;;;;;14.25;11.50;;;;;7.30;100.00;101041.19;5092580;27;45551;-73
2022/12/04 00:28:36;;;;;;;;;23.00;15.00;;;;;7.32;100.00;101048.25;5095296;27;45510;-73
2022/12/04 00:31:06;;;;;;;;;18.00;14.75;;;;;7.28;100.00;101038.50;5094409;27;45613;-73
2022/12/04 00:33:31;;;;;;;;;6.25;6.00;;;;;7.33;100.00;101034.25;5094482;27;45520;-74
2022/12/04 00:35:58;;;;;;;;;16.00;11.50;;;;;7.35;100.00;101055.34;5093277;27;60136;-73
2022/12/04 00:38:23;;;;;;;;;22.50;15.25;;;;;7.34;100.00;101057.03;5094846;27;45632;-73
2022/12/04 00:40:50;;;;;;;;;16.50;13.25;;;;;7.29;100.00;101042.00;5076382;27;48656;-72
2022/12/04 00:43:15;;;;;;;;;15.50;15.00;;;;;7.33;100.00;101041.25;5092807;27;45554;-75
2022/12/04 00:45:41;;;;;;;;;12.75;12.75;;;;;7.28;100.00;101033.22;5095785;27;45471;-74
2022/12/04 00:48:06;;;;;;;;;15.25;14.75;;;;;7.32;100.00;101035.09;5091179;27;57854;-73
2022/12/04 00:50:31;;;;;;;;;13.25;9.75;;;;;7.32;100.00;101047.34;5092237;27;45417;-73
2022/12/04 00:52:57;;;;;;;;;14.50;11.75;;;;;7.25;100.00;101030.53;5093875;27;63256;-74
2022/12/04 00:55:23;;;;;;;;;19.25;12.25;;;;;7.28;100.00;101034.97;5092633;27;45706;-73
2022/12/04 00:57:49;;;;;;;;;18.00;14.25;;;;;7.32;100.00;101031.59;5095491;27;46970;-74
2022/12/04 01:00:14;;;;;;;;;17.50;10.50;;;;;7.29;100.00;101028.88;5094960;27;66819;-72
2022/12/04 01:02:40;;;;;;;;;23.25;14.25;;;;;7.33;100.00;101030.75;5094718;27;45466;-74
2022/12/04 01:05:05;;;;;;;;;18.00;14.00;;;;;7.32;100.00;101028.97;5096989;27;45526;-74
2022/12/04 01:07:31;;;;;;;;;18.25;17.25;;;;;7.32;100.00;101035.09;5097509;27;45960;-73
2022/12/04 01:09:56;;;;;;;;;15.50;13.50;;;;;7.29;100.00;101024.50;5096355;27;68405;-73
2022/12/04 01:12:22;;;;;;;;;16.50;15.00;;;;;7.28;100.00;101027.97;5094521;27;62539;-73
2022/12/04 01:14:47;;;;;;;;;25.25;14.00;;;;;7.33;100.00;101036.00;5096093;27;59702;-73
2022/12/04 01:17:13;;;;;;;;;18.25;14.50;;;;;7.27;100.00;101025.31;5095839;27;59248;-73
2022/12/04 01:19:38;;;;;;;;;15.75;14.25;;;;;7.26;100.00;101026.19;5078807;27;46579;-73
2022/12/04 01:22:03;;;;;;;;;18.50;15.50;;;;;7.26;100.00;101029.69;5075817;28;45465;-73
2022/12/04 01:24:29;;;;;;;;;18.50;13.25;;;;;7.25;100.00;101021.78;5093519;27;45667;-73
2022/12/04 01:26:54;;;;;;;;;16.75;11.00;;;;;7.24;100.00;101014.72;5095622;27;48575;-72
2022/12/04 01:29:19;;;;;;;;;17.50;10.50;;;;;7.22;100.00;101022.56;5096167;27;69214;-73
2022/12/04 01:31:45;;;;;;;;;21.00;15.00;;;;;7.27;100.00;101028.84;5096753;27;45373;-75
2022/12/04 01:34:10;;;;;;;;;15.75;13.50;;;;;7.27;100.00;101027.94;5096440;27;63903;-73
2022/12/04 01:36:35;;;;;;;;;19.50;10.75;;;;;7.21;100.00;101017.28;5096034;27;45475;-73
2022/12/04 01:39:01;;;;;;;;;18.25;16.25;;;;;7.22;100.00;101013.81;5095953;27;64862;-73
2022/12/04 01:41:28;;;;;;;;;16.25;14.00;;;;;7.19;100.00;101012.00;5096946;27;45259;-72
2022/12/04 01:44:16;;;;;;;;;13.00;13.00;;;;;7.23;100.00;101016.47;5096800;27;45464;-73
2022/12/04 01:47:00;;;;;;;;;17.75;12.25;;;;;7.20;100.00;101008.50;5097187;27;45655;-73
2022/12/04 01:49:34;;;;;;;;;26.50;15.75;;;;;7.24;100.00;101015.59;5096435;27;59843;-74
2022/12/04 01:52:04;;;;;;;;;18.00;14.75;;;;;7.18;100.00;101020.69;5096833;27;45461;-74
2022/12/04 01:54:35;;;;;;;;;15.00;15.00;;;;;7.24;100.00;101020.84;5076608;27;45197;-73
2022/12/04 01:57:08;;;;;;;;;14.50;13.25;;;;;7.24;100.00;101026.09;5095619;27;45764;-73
2022/12/04 01:59:42;;;;;;;;;19.25;13.00;;;;;7.17;100.00;101018.91;5078059;27;45418;-72
2022/12/04 02:02:10;;;;;;;;;16.25;14.00;;;;;7.21;100.00;101018.16;5076499;27;45569;-73
2022/12/04 02:04:38;;;;;;;;;14.75;13.00;;;;;7.17;100.00;101018.91;5078505;27;45488;-72
2022/12/04 02:07:04;;;;;;;;;16.25;11.00;;;;;7.22;100.00;101030.44;5078090;27;45518;-73
2022/12/04 02:09:30;;;;;;;;;17.25;13.50;;;;;7.19;100.00;101021.59;5095860;27;46573;-73
2022/12/04 02:12:14;;;;;;;;;22.00;14.75;;;;;7.18;100.00;101025.06;5096299;27;45307;-73
2022/12/04 02:14:54;;;;;;;;;16.75;12.25;;;;;7.18;100.00;101025.06;5096510;27;45243;-73
2022/12/04 02:17:27;;;;;;;;;26.75;15.75;;;;;7.19;100.00;101017.25;5079003;27;45507;-73
2022/12/04 02:19:56;;;;;;;;;15.00;12.75;;;;;7.25;100.00;101032.28;5093832;27;47258;-74
2022/12/04 02:22:43;;;;;;;;;17.00;15.75;;;;;7.24;100.00;101026.09;5075045;28;45426;-73
2022/12/04 02:25:31;;;;;;;;;17.50;14.00;;;;;7.23;100.00;101029.59;5094150;27;45566;-73
2022/12/04 02:27:58;;;;;;;;;19.25;14.50;;;;;7.23;100.00;101031.34;5094179;27;45592;-73
2022/12/04 02:30:26;;;;;;;;;22.00;13.75;;;;;7.19;100.00;101017.25;5074817;28;46489;-73
2022/12/04 02:33:02;;;;;;;;;21.25;18.75;;;;;7.23;100.00;101029.59;5075275;27;60708;-73
2022/12/04 02:35:55;;;;;;;;;18.75;11.75;;;;;7.23;100.00;101026.97;5095782;27;45279;-71
2022/12/04 02:38:36;;;;;;;;;19.25;15.00;;;;;7.23;100.00;101031.34;5074145;27;45396;-73
2022/12/04 02:41:36;;;;;;;;;14.00;12.00;;;;;7.20;100.00;101029.53;5076508;27;46756;-72
2022/12/04 02:44:16;;;;;;;;;23.25;14.25;;;;;7.24;100.00;101034.00;5043321;27;45576;-73
2022/12/04 02:46:44;;;;;;;;;20.00;17.50;;;;;7.24;100.00;101028.75;5096068;27;45555;-74
2022/12/04 02:49:34;;;;;;;;;23.75;15.00;;;;;7.21;100.00;101022.53;5077542;27;46551;-73
2022/12/04 02:52:00;;;;;;;;;18.25;14.00;;;;;7.22;100.00;101022.56;5091427;27;47299;-72
2022/12/04 02:54:37;;;;;;;;;19.50;16.25;;;;;7.24;100.00;101019.97;5096060;27;46077;-73
2022/12/04 02:57:04;;;;;;;;;18.00;17.50;;;;;7.24;100.00;101019.97;5077935;27;45347;-74
2022/12/04 02:59:34;;;;;;;;;20.25;15.00;;;;;7.23;100.00;101010.31;5092046;27;45442;-73
2022/12/04 03:02:06;;;;;;;;;22.25;16.00;;;;;7.25;100.00;101012.16;5066022;28;45243;-72
2022/12/04 03:04:32;;;;;;;;;28.25;14.75;;;;;7.26;100.00;101032.31;5083097;27;45339;-72
2022/12/04 03:07:10;;;;;;;;;18.25;15.50;;;;;7.23;100.00;101021.72;5081339;27;46283;-72
2022/12/04 03:09:42;;;;;;;;;30.75;15.00;;;;;7.27;100.00;101027.94;5088267;27;45423;-72
2022/12/04 03:12:22;;;;;;;;;19.25;16.25;;;;;7.28;100.00;101027.97;5080725;27;47307;-75
2022/12/04 03:14:56;;;;;;;;;23.00;17.50;;;;;7.24;100.00;101015.59;5097565;27;45555;-74
2022/12/04 03:17:28;;;;;;;;;20.75;17.50;;;;;7.24;100.00;101005.09;5080572;27;45484;-73
2022/12/04 03:19:58;;;;;;;;;20.25;14.00;;;;;7.29;100.00;101010.47;5080482;27;45557;-73
2022/12/04 03:22:25;;;;;;;;;27.50;18.25;;;;;7.29;100.00;101010.47;5096507;27;46697;-73
2022/12/04 03:24:53;;;;;;;;;19.00;14.00;;;;;7.26;100.00;100999.91;5096743;27;64489;-73
2022/12/04 03:27:21;;;;;;;;;19.25;15.00;;;;;7.29;100.00;101010.47;5099122;27;45319;-73
2022/12/04 03:30:08;;;;;;;;;15.50;14.25;;;;;7.27;100.00;100994.69;5098721;27;45458;-73
2022/12/04 03:32:35;;;;;;;;;28.00;18.25;;;;;7.29;100.00;100995.63;5080350;27;46734;-73
2022/12/04 03:35:09;;;;;;;;;28.50;19.00;;;;;7.27;100.00;100992.06;5080554;27;45598;-73
2022/12/04 03:37:42;;;;;;;;;23.25;20.00;;;;;7.30;100.00;101005.28;5097816;27;45416;-73
2022/12/04 03:40:18;;;;;;;;;23.75;19.25;;;;;7.28;100.00;100999.09;5072401;27;45528;-74
2022/12/04 03:43:07;;;;;;;;;23.75;16.00;;;;;7.27;100.00;100984.19;5098445;27;46337;-75
2022/12/04 03:46:02;;;;;;;;;32.25;16.25;;;;;7.25;100.00;100980.66;5079711;27;45516;-75
2022/12/04 03:48:36;;;;;;;;;23.75;18.00;;;;;7.26;100.00;100973.66;5098272;27;45293;-73
2022/12/04 03:51:17;;;;;;;;;23.25;20.75;;;;;7.31;100.00;100982.53;5080820;27;45357;-73
2022/12/04 03:53:49;;;;;;;;;12.25;11.50;;;;;7.26;100.00;100971.91;5098329;27;45728;-73
2022/12/04 03:56:17;;;;;;;;;25.00;14.25;;;;;7.30;100.00;100980.78;5098088;27;45482;-74
2022/12/04 03:58:48;;;;;;;;;29.75;19.50;;;;;7.27;100.00;100970.16;5080908;27;45445;-73
2022/12/04 04:01:18;;;;;;;;;23.00;18.75;;;;;7.32;100.00;100976.44;5080345;27;45486;-73
2022/12/04 04:03:51;;;;;;;;;22.00;18.75;;;;;7.32;100.00;100971.19;5098119;27;46672;-73
2022/12/04 04:06:24;;;;;;;;;21.00;18.00;;;;;7.31;100.00;100959.78;5078710;27;45715;-74
2022/12/04 04:08:52;;;;;;;;;21.25;17.75;;;;;7.31;100.00;100956.28;5079312;27;45386;-73
2022/12/04 04:11:22;;;;;;;;;31.50;16.75;;;;;7.32;100.00;100955.44;5096340;27;45402;-73
2022/12/04 04:25:07;;;;;;;;;22.25;13.00;;;;;7.27;100.00;100923.78;5082668;27;45453;-74
2022/12/04 04:27:32;;;;;;;;;22.00;17.50;;;;;7.26;100.00;100908.88;5097714;27;45295;-73
2022/12/04 04:29:57;;;;;;;;;24.75;16.00;;;;;7.25;100.00;100899.22;5097361;27;66533;-75
2022/12/04 04:32:45;;;;;;;;;20.75;17.25;;;;;7.34;100.00;100917.81;5097432;27;45848;-73
2022/12/04 04:35:20;;;;;;;;;15.75;15.50;;;;;7.35;100.00;100919.63;5077531;27;47397;-74
2022/12/04 04:38:19;;;;;;;;;20.25;16.75;;;;;7.29;100.00;100921.19;5097465;27;45639;-75
2022/12/04 04:41:10;;;;;;;;;19.50;15.75;;;;;7.33;100.00;100937.06;5097895;27;45287;-75
2022/12/04 04:43:58;;;;;;;;;21.75;21.50;;;;;7.32;100.00;100934.41;5086041;27;45562;-72
2022/12/04 04:46:32;;;;;;;;;26.25;21.50;;;;;7.31;100.00;100938.78;5101880;27;47583;-73
2022/12/04 04:49:01;;;;;;;;;19.00;15.25;;;;;7.29;100.00;100926.44;5076001;27;45598;-74
2022/12/04 04:51:27;;;;;;;;;21.00;18.00;;;;;7.29;100.00;100915.94;5074970;27;45482;-73
2022/12/04 04:53:55;;;;;;;;;23.75;19.00;;;;;7.31;100.00;100930.91;5076048;27;45546;-74
2022/12/04 04:56:21;;;;;;;;;27.25;18.75;;;;;7.33;100.00;100920.44;5070845;28;45474;-74
2022/12/04 04:58:46;;;;;;;;;23.50;18.25;;;;;7.36;100.00;100925.78;5095375;27;59256;-73
2022/12/04 05:01:15;;;;;;;;;20.25;16.00;;;;;7.37;100.00;100927.53;5096583;27;61406;-75
2022/12/04 05:03:41;;;;;;;;;19.50;17.75;;;;;7.35;100.00;100935.38;5079302;27;45683;-74
2022/12/04 05:06:06;;;;;;;;;24.50;16.50;;;;;7.33;100.00;100928.31;5078723;27;63858;-73
2022/12/04 05:08:32;;;;;;;;;26.00;21.75;;;;;7.31;100.00;100923.03;5097700;27;45374;-73
2022/12/04 05:10:58;;;;;;;;;28.75;18.75;;;;;7.36;100.00;100936.28;5097460;27;45369;-73
2022/12/04 05:13:23;;;;;;;;;23.50;17.50;;;;;7.33;100.00;100933.56;5096711;27;45291;-73
2022/12/04 05:16:04;;;;;;;;;24.25;22.50;;;;;7.38;100.00;100937.19;5094072;27;68485;-74
2022/12/04 05:18:31;;;;;;;;;26.50;18.00;;;;;7.40;100.00;100939.84;5096818;27;45402;-72
2022/12/04 05:20:56;;;;;;;;;23.75;23.00;;;;;7.40;100.00;100947.72;5096942;27;45387;-73
2022/12/04 05:23:22;;;;;;;;;24.75;15.00;;;;;7.40;100.00;100948.63;5097512;27;45366;-73
2022/12/04 05:25:48;;;;;;;;;25.50;19.75;;;;;7.37;100.00;100942.41;5096803;27;46116;-75
2022/12/04 05:28:13;;;;;;;;;25.00;13.75;;;;;7.36;100.00;100931.03;5096102;27;47067;-73
2022/12/04 05:30:39;;;;;;;;;28.00;19.25;;;;;7.35;100.00;100929.25;5096352;27;45528;-73
2022/12/04 05:33:04;;;;;;;;;22.00;19.25;;;;;7.40;100.00;100935.47;5096412;27;54228;-72
2022/12/04 05:35:29;;;;;;;;;29.50;19.50;;;;;7.41;100.00;100945.16;5095925;27;70891;-73
2022/12/04 05:37:55;;;;;;;;;23.50;17.50;;;;;7.37;100.00;100926.66;5096347;27;53726;-73
2022/12/04 05:40:20;;;;;;;;;23.25;15.25;;;;;7.39;100.00;100945.97;5095897;27;58711;-73
2022/12/04 05:42:45;;;;;;;;;25.75;21.25;;;;;7.42;100.00;100946.03;5096668;27;45549;-73
2022/12/04 05:45:11;;;;;;;;;29.00;18.25;;;;;7.36;100.00;100938.91;5092576;27;65461;-75
2022/12/04 05:47:40;;;;;;;;;20.00;16.25;;;;;7.42;100.00;100957.44;5097116;27;45443;-73
2022/12/04 05:50:07;;;;;;;;;24.50;17.50;;;;;7.42;100.00;100961.81;5077699;27;46432;-73
2022/12/04 05:52:32;;;;;;;;;19.50;15.75;;;;;7.41;100.00;100978.44;5095905;27;45591;-73
2022/12/04 05:54:57;;;;;;;;;24.25;18.00;;;;;7.39;100.00;100972.22;5095897;27;65956;-73
2022/12/04 05:57:23;;;;;;;;;22.00;16.75;;;;;7.40;100.00;100976.63;5095448;27;66424;-74
2022/12/04 05:59:49;;;;;;;;;28.25;20.00;;;;;7.43;100.00;100981.97;5096308;27;45342;-73
2022/12/04 06:02:14;;;;;;;;;31.00;18.00;;;;;7.43;100.00;100980.22;5097138;27;45306;-72
2022/12/04 06:04:40;;;;;;;;;21.50;18.75;;;;;7.41;100.00;100975.81;5095801;27;62371;-75
2022/12/04 06:07:05;;;;;;;;;22.25;15.75;;;;;7.40;100.00;100974.88;5095728;27;67780;-72
2022/12/04 06:09:31;;;;;;;;;28.75;18.00;;;;;7.41;100.00;100983.69;5095717;27;45477;-73
2022/12/04 06:11:57;;;;;;;;;31.75;19.50;;;;;7.40;100.00;100988.00;5096725;27;45386;-73
2022/12/04 06:14:22;;;;;;;;;28.00;19.50;;;;;7.41;100.00;100994.19;5096186;27;45729;-73
2022/12/04 06:16:48;;;;;;;;;27.00;22.75;;;;;7.38;100.00;100981.84;5096031;27;46090;-73
2022/12/04 06:19:15;;;;;;;;;25.00;19.00;;;;;7.42;100.00;100981.09;5077887;27;45297;-74
2022/12/04 06:21:42;;;;;;;;;27.00;18.75;;;;;7.39;100.00;100977.47;5096771;27;45402;-75
2022/12/04 06:24:13;;;;;;;;;22.75;19.00;;;;;7.39;100.00;100970.47;5095797;27;45201;-75
2022/12/04 06:26:38;;;;;;;;;26.75;20.75;;;;;7.45;100.00;100978.53;5096272;27;45508;-73
2022/12/04 06:29:04;;;;;;;;;32.00;21.25;;;;;7.42;100.00;100978.47;5089544;27;64176;-75
2022/12/04 06:31:29;;;;;;;;;20.50;15.25;;;;;7.42;100.00;100970.56;5083836;27;45390;-73
2022/12/04 06:33:56;;;;;;;;;26.75;18.25;;;;;7.43;100.00;100974.09;5088931;27;46518;-72
2022/12/04 06:36:22;;;;;;;;;25.00;18.25;;;;;7.45;100.00;100973.25;5093303;27;45436;-73
2022/12/04 06:38:49;;;;;;;;;28.50;24.00;;;;;7.45;100.00;100965.38;5080100;27;45757;-73
2022/12/04 06:41:16;;;;;;;;;16.50;15.50;;;;;7.44;100.00;100968.88;5085540;27;45296;-73
2022/12/04 06:43:42;;;;;;;;;20.00;13.75;;;;;7.44;100.00;100978.50;5093372;27;46260;-73
2022/12/04 06:46:12;;;;;;;;;27.75;20.50;;;;;7.43;100.00;100976.72;5098118;27;45445;-75
2022/12/04 06:48:39;;;;;;;;;29.50;19.25;;;;;7.45;100.00;100982.88;5099500;27;45434;-75
2022/12/04 06:51:11;;;;;;;;;29.75;19.00;;;;;7.45;100.00;100983.78;5095079;27;45456;-73
2022/12/04 06:53:37;;;;;;;;;25.25;18.50;;;;;7.45;100.00;100989.03;5096294;27;45785;-73
2022/12/04 06:56:06;;;;;;;;;20.50;15.00;;;;;7.45;100.00;100983.78;5104079;27;45438;-72
2022/12/04 06:58:31;;;;;;;;;21.75;18.00;;;;;7.50;100.00;100990.03;5097892;27;45354;-73
2022/12/04 07:00:57;;;;;;;;;26.25;19.25;;;;;7.50;100.00;100992.66;5080450;27;60724;-73
2022/12/04 07:03:23;;;;;;;;;20.00;16.75;;;;;7.50;100.00;100989.16;5098642;27;46654;-74
2022/12/04 07:05:49;;;;;;;;;21.50;15.25;;;;;7.49;100.00;100993.53;5101327;27;45374;-74
2022/12/04 07:08:14;;;;;;;;;23.75;20.75;;;;;7.49;100.00;100995.25;5090494;27;45313;-74
2022/12/04 07:10:40;;;;;;;;;30.75;21.50;;;;;7.48;100.00;100988.22;5082475;27;45483;-73
2022/12/04 07:13:06;;;;;;;;;26.25;20.25;;;;;7.47;100.00;100984.72;5093237;27;45778;-73
2022/12/04 07:15:33;;;;;;;;;22.75;16.00;;;;;7.43;100.00;100981.97;5081941;27;45598;-73
2022/12/04 07:17:58;;;;;;;;;19.75;16.50;;;;;7.44;100.00;100997.75;5100017;27;45341;-73
2022/12/04 07:20:24;;;;;;;;;25.50;20.25;;;;;7.48;100.00;101001.38;5091088;27;64230;-73
2022/12/04 07:22:49;;;;;;;;;23.00;16.50;;;;;7.47;100.00;101002.22;5095824;27;45445;-73
2022/12/04 07:25:15;;;;;;;;;22.50;18.50;;;;;7.46;100.00;101003.09;5084020;27;45552;-73
2022/12/04 07:27:40;;;;;;;;;29.50;28.25;;;;;7.41;100.00;100987.19;5097839;27;49220;-73
2022/12/04 07:30:06;;;;;;;;;33.25;23.00;;;;;7.41;100.00;100988.94;5088342;27;45507;-73
2022/12/04 07:32:31;;;;;;;;;29.25;22.50;;;;;7.44;100.00;101007.38;5093373;27;46223;-73
2022/12/04 07:34:56;;;;;;;;;22.75;18.50;;;;;7.42;100.00;100993.34;5093878;27;61140;-75
2022/12/04 07:37:22;;;;;;;;;27.75;18.75;;;;;7.46;100.00;101006.59;5096892;27;60854;-74
2022/12/04 07:39:50;;;;;;;;;25.00;20.75;;;;;7.46;100.00;101006.59;5096973;27;58535;-73
2022/12/04 07:42:15;;;;;;;;;32.50;20.00;;;;;7.42;100.00;100991.59;5097247;27;46191;-74
2022/12/04 07:44:40;;;;;;;;;27.75;20.75;;;;;7.45;100.00;101001.28;5088846;27;45520;-75
2022/12/04 07:47:06;;;;;;;;;22.00;19.25;;;;;7.43;100.00;100992.47;5097550;27;58608;-72
2022/12/04 07:49:31;;;;;;;;;27.00;18.75;;;;;7.43;100.00;100993.38;5097799;27;45386;-74
2022/12/04 07:51:57;;;;;;;;;24.00;15.75;;;;;7.48;100.00;100994.38;5097229;27;45747;-75
2022/12/04 07:54:22;;;;;;;;;19.00;12.75;;;;;7.46;100.00;100989.94;5097271;27;65971;-73
2022/12/04 07:56:47;;;;;;;;;24.00;21.25;;;;;7.47;100.00;100986.47;5098192;27;46628;-74
2022/12/04 07:59:13;;;;;;;;;31.00;20.00;;;;;7.47;100.00;100987.34;5097506;27;61690;-73
2022/12/04 08:01:39;;;;;;;;;21.50;19.75;;;;;7.47;100.00;100975.94;5097222;27;47365;-75
2022/12/04 08:04:04;;;;;;;;;32.75;19.75;;;;;7.52;100.00;100990.97;5085437;27;67053;-74
2022/12/04 08:06:32;;;;;;;;;23.75;19.25;;;;;7.53;100.00;100982.25;5093429;27;45433;-74
2022/12/04 08:08:57;;;;;;;;;23.50;18.50;;;;;7.51;100.00;100983.03;5097912;27;45596;-74
2022/12/04 08:11:24;;;;;;;;;23.00;19.00;;;;;7.56;100.00;100987.59;5094113;27;59267;-76
2022/12/04 08:13:58;;;;;;;;;28.50;21.50;;;;;7.57;100.00;100996.38;5064992;27;45537;-76
2022/12/04 08:16:24;;;;;;;;;24.75;19.25;;;;;7.57;100.00;100997.25;5093168;27;45457;-74
2022/12/04 08:18:49;;;;;;;;;20.25;15.00;;;;;7.56;100.00;100998.09;5093620;27;45302;-74
2022/12/04 08:21:19;;;;;;;;;25.75;15.00;;;;;7.59;100.00;100994.66;5096712;27;67056;-74
2022/12/04 08:23:45;;;;;;;;;32.50;16.75;;;;;7.61;100.00;100979.81;5086849;27;45682;-74
2022/12/04 08:26:11;;;;;;;;;30.50;16.75;;;;;7.62;100.00;100992.13;5090152;27;45359;-74
2022/12/04 08:28:37;;;;;;;;;27.25;21.25;;;;;7.62;100.00;100986.84;5097702;27;62526;-75
2022/12/04 08:31:03;;;;;;;;;20.75;17.00;;;;;7.59;100.00;100978.88;5093275;27;46447;-76
2022/12/04 08:33:30;;;;;;;;;26.00;22.00;;;;;7.60;100.00;100985.91;5088164;27;45538;-73
2022/12/04 08:35:55;;;;;;;;;20.75;20.75;;;;;7.63;100.00;100985.13;5088169;27;45838;-74
2022/12/04 08:38:20;;;;;;;;;28.25;21.00;;;;;7.64;100.00;100982.53;5084757;27;59798;-74
2022/12/04 08:40:46;;;;;;;;;23.75;17.25;;;;;7.69;100.00;101003.66;5072575;27;67423;-73
2022/12/04 08:43:11;;;;;;;;;29.75;23.00;;;;;7.65;100.00;100984.28;5076815;27;45529;-74
2022/12/04 08:45:36;;;;;;;;;23.25;17.50;;;;;7.66;100.00;100993.94;5087145;27;45558;-74
2022/12/04 08:48:02;;;;;;;;;27.25;17.25;;;;;7.67;100.00;100998.38;5077294;27;57969;-73
2022/12/04 08:50:27;;;;;;;;;23.00;20.25;;;;;7.66;100.00;100993.94;5089290;27;45413;-73
2022/12/04 08:52:52;;;;;;;;;28.25;18.25;;;;;7.70;100.00;100997.56;5073280;27;45510;-73
2022/12/04 08:55:18;;;;;;;;;25.25;19.25;;;;;7.71;100.00;101000.22;5098772;27;59484;-74
2022/12/04 08:57:43;;;;;;;;;25.75;19.25;;;;;7.77;100.00;101005.63;5084408;27;51459;-74
2022/12/04 09:00:09;;;;;;;;;30.75;21.75;;;;;7.80;100.00;101017.97;5097076;27;64068;-75
2022/12/04 09:02:34;;;;;;;;;25.75;21.00;;;;;7.80;100.00;101017.97;5089494;27;46460;-75
2022/12/04 09:05:00;;;;;;;;;26.00;20.00;;;;;7.85;100.00;101019.84;5077748;27;59573;-73
2022/12/04 09:07:25;;;;;;;;;31.00;21.75;;;;;7.87;100.00;101023.41;5089230;27;47553;-73
2022/12/04 09:09:51;;;;;;;;;30.50;22.00;;;;;7.84;100.00;101007.56;5092084;27;70106;-73
2022/12/04 09:12:16;;;;;;;;;23.50;19.50;;;;;7.91;100.00;101015.59;5093799;27;65571;-75
2022/12/04 09:14:41;;;;;;;;;30.25;18.75;;;;;7.87;100.00;101005.00;5094434;27;45430;-74
2022/12/04 09:17:07;;;;;;;;;38.50;25.25;;;;;7.86;100.00;101000.59;5092247;27;45456;-73
2022/12/04 09:19:34;;;;;;;;;19.75;16.25;;;;;7.86;100.00;101002.34;5096152;27;47390;-74
2022/12/04 09:21:59;;;;;;;;;32.50;23.25;;;;;7.93;100.00;101016.50;5086287;27;45355;-73
2022/12/04 09:24:24;;;;;;;;;20.00;14.25;;;;;7.90;100.00;101012.09;5090034;27;57110;-73
2022/12/04 09:26:50;;;;;;;;;26.00;22.00;;;;;7.90;100.00;101006.81;5074151;27;56935;-75
2022/12/04 09:29:15;;;;;;;;;36.50;25.25;;;;;7.96;100.00;101012.22;5091660;27;45633;-74
2022/12/04 09:31:41;;;;;;;;;16.50;16.25;;;;;7.95;100.00;101005.19;5090104;27;63447;-74
2022/12/04 09:34:06;;;;;;;;;29.50;20.75;;;;;7.98;100.00;101010.50;5097592;27;45917;-73
2022/12/04 09:36:31;;;;;;;;;29.75;19.75;;;;;8.02;100.00;101006.22;5075923;27;46264;-74
2022/12/04 09:38:57;;;;;;;;;21.75;19.00;;;;;8.01;100.00;101002.72;5093114;22;45529;-76
2022/12/04 09:41:24;;;;;;;;;27.00;20.50;;;;;8.06;100.00;101001.09;5113161;22;45426;-74
2022/12/04 09:44:16;;;;;;;;;29.50;23.50;;;;;8.09;100.00;101003.75;5112409;27;46063;-74
2022/12/04 09:47:03;;;;;;;;;37.50;22.00;;;;;8.14;100.00;101009.13;5124684;27;45557;-74
2022/12/04 09:49:35;;;;;;;;;25.75;18.50;;;;;8.12;100.00;100997.72;5108568;27;47039;-73
2022/12/04 09:52:17;;;;;;;;;27.50;20.75;;;;;8.21;100.00;101011.09;5105386;27;45248;-74
2022/12/04 09:54:43;;;;;;;;;30.50;23.00;;;;;8.24;100.00;101016.41;5129281;27;45379;-73
2022/12/04 09:57:15;;;;;;;;;25.00;17.75;;;;;8.22;100.00;101015.50;5127802;27;46312;-73
2022/12/04 09:59:40;;;;;;;;;28.25;24.00;;;;;8.26;100.00;101013.81;5136049;27;47512;-73
2022/12/04 10:02:36;;;;;;;;;36.75;21.75;;;;;8.28;100.00;101020.00;5111283;27;57729;-75
2022/12/04 10:05:02;;;;;;;;;27.75;19.25;;;;;8.26;100.00;101005.94;5130648;27;45532;-75
2022/12/04 10:07:36;;;;;;;;;30.25;21.00;;;;;8.26;100.00;100998.03;5138322;27;45309;-73
2022/12/04 10:10:29;;;;;;;;;29.00;20.75;;;;;8.27;100.00;101005.06;5117032;27;46901;-76
2022/12/04 10:12:57;;;;;;;;;33.50;23.75;;;;;8.25;100.00;100991.88;5136416;27;45499;-74
2022/12/04 10:15:25;;;;;;;;;25.00;19.25;;;;;8.31;100.00;100997.28;5136421;27;45370;-75
2022/12/04 10:18:02;;;;;;;;;27.75;22.50;;;;;8.32;100.00;101003.44;5138632;27;45352;-74
2022/12/04 10:20:30;;;;;;;;;34.00;24.75;;;;;8.34;100.00;101001.72;5130313;27;46573;-76
2022/12/04 10:23:37;;;;;;;;;29.50;19.25;;;;;8.34;100.00;100994.72;5130774;27;45536;-74
2022/12/04 10:26:04;;;;;;;;;26.00;21.75;;;;;8.35;100.00;100992.97;5127580;27;45527;-75
2022/12/04 10:28:37;;;;;;;;;30.50;21.50;;;;;8.36;100.00;100990.44;5133166;27;45371;-74
2022/12/04 10:31:05;;;;;;;;;30.25;24.75;;;;;8.40;100.00;100992.25;5133882;27;47405;-73
2022/12/04 10:33:41;;;;;;;;;31.25;24.75;;;;;8.40;100.00;100992.25;5116428;27;45552;-73
2022/12/04 10:36:16;;;;;;;;;27.50;25.00;;;;;8.42;100.00;100988.78;5135390;27;45674;-73
2022/12/04 10:38:59;;;;;;;;;28.00;24.75;;;;;8.39;100.00;100987.84;5121307;27;45527;-72
2022/12/04 10:41:44;;;;;;;;;26.00;21.25;;;;;8.37;100.00;100979.03;5130169;27;46335;-73
2022/12/04 10:44:17;;;;;;;;;28.50;22.50;;;;;8.39;100.00;100979.94;5118789;27;45313;-72
2022/12/04 10:46:43;;;;;;;;;28.00;24.50;;;;;8.45;100.00;100981.84;5121291;27;45551;-71
2022/12/04 10:49:29;;;;;;;;;31.75;24.75;;;;;8.47;100.00;100980.16;5135732;27;45391;-74
2022/12/04 10:51:55;;;;;;;;;31.00;25.25;;;;;8.55;100.00;100977.66;5120413;27;46675;-73
2022/12/04 10:54:22;;;;;;;;;27.00;20.25;;;;;8.53;100.00;100977.63;5114564;27;46102;-72
2022/12/04 10:56:58;;;;;;;;;38.25;27.00;;;;;8.57;100.00;100991.72;5132586;27;45569;-75
2022/12/04 10:59:24;;;;;;;;;27.00;22.25;;;;;8.46;100.00;100990.59;5134354;27;45443;-73
2022/12/04 11:01:51;;;;;;;;;33.75;26.25;;;;;8.41;100.00;100998.41;5133704;27;45731;-74
2022/12/04 11:04:27;;;;;;;;;23.00;21.75;;;;;8.40;100.00;100978.22;5108809;27;45574;-74
2022/12/04 11:07:08;;;;;;;;;35.50;20.50;;;;;8.48;100.00;100991.56;5115598;27;45607;-74
2022/12/04 11:09:33;;;;;;;;;25.25;20.75;;;;;8.49;100.00;100990.69;5134461;27;45713;-74
2022/12/04 11:12:08;;;;;;;;;27.50;23.25;;;;;8.51;100.00;100976.69;5135877;27;46146;-74
2022/12/04 11:14:33;;;;;;;;;31.75;23.25;;;;;8.54;100.00;100979.41;5136658;27;45305;-74
2022/12/04 11:17:02;;;;;;;;;44.25;27.25;;;;;8.51;100.00;100958.28;5135678;27;45467;-74
2022/12/04 11:19:30;;;;;;;;;39.25;30.25;;;;;8.53;100.00;100963.59;5134150;27;45404;-74
2022/12/04 11:21:59;;;;;;;;;26.25;24.75;;;;;8.57;100.00;100978.56;5118196;27;46006;-74
2022/12/04 11:24:33;;;;;;;;;42.50;29.75;;;;;8.59;100.00;100969.88;5135789;27;45437;-73
2022/12/04 11:29:40;;;;;;;;;32.75;26.25;;;;;8.63;100.00;100965.56;5093311;22;45337;-74
2022/12/04 11:32:06;;;;;;;;;28.00;19.25;;;;;8.61;100.00;100957.63;5074233;28;46473;-73
2022/12/04 11:34:38;;;;;;;;;38.25;28.25;;;;;8.66;100.00;100958.59;5057739;28;45430;-73